sensor_id;sensor_type;location;lat;lon;timestamp;P1;durP1;ratioP1;P2;durP2;ratioP2
53718;SDS011;39616;48.872;9.390;2024-03-22T00:00:04;12.98;;;5.53;;
53718;SDS011;39616;48.872;9.390;2024-03-22T00:02:35;8.95;;;5.75;;
53718;SDS011;39616;48.872;9.390;2024-03-22T00:05:06;7.28;;;5.35;;
53718;SDS011;39616;48.872;9.390;2024-03-22T00:07:36;10.38;;;5.20;;
53718;SDS011;39616;48.872;9.390;2024-03-22T00:10:08;11.15;;;6.55;;
53718;SDS011;39616;48.872;9.390;2024-03-22T00:12:38;10.27;;;5.50;;
53718;SDS011;39616;48.872;9.390;2024-03-22T00:15:09;7.63;;;4.50;;
53718;SDS011;39616;48.872;9.390;2024-03-22T00:17:39;9.77;;;6.25;;
53718;SDS011;39616;48.872;9.390;2024-03-22T00:20:09;10.55;;;4.22;;
53718;SDS011;39616;48.872;9.390;2024-03-22T00:22:40;6.65;;;3.83;;
53718;SDS011;39616;48.872;9.390;2024-03-22T00:25:10;8.77;;;4.40;;
53718;SDS011;39616;48.872;9.390;2024-03-22T00:27:41;7.63;;;3.97;;
53718;SDS011;39616;48.872;9.390;2024-03-22T00:30:11;10.80;;;4.60;;
53718;SDS011;39616;48.872;9.390;2024-03-22T00:32:41;10.07;;;5.00;;
53718;SDS011;39616;48.872;9.390;2024-03-22T00:35:14;11.40;;;5.50;;
53718;SDS011;39616;48.872;9.390;2024-03-22T00:37:45;8.32;;;4.72;;
53718;SDS011;39616;48.872;9.390;2024-03-22T00:40:15;7.75;;;4.75;;
53718;SDS011;39616;48.872;9.390;2024-03-22T00:42:46;13.32;;;4.82;;
53718;SDS011;39616;48.872;9.390;2024-03-22T00:45:16;12.52;;;4.88;;
53718;SDS011;39616;48.872;9.390;2024-03-22T00:47:46;7.55;;;4.68;;
53718;SDS011;39616;48.872;9.390;2024-03-22T00:50:17;13.95;;;5.28;;
53718;SDS011;39616;48.872;9.390;2024-03-22T00:52:47;8.32;;;4.68;;
53718;SDS011;39616;48.872;9.390;2024-03-22T00:55:18;10.15;;;6.05;;
53718;SDS011;39616;48.872;9.390;2024-03-22T00:57:49;13.43;;;6.80;;
53718;SDS011;39616;48.872;9.390;2024-03-22T01:00:19;9.32;;;5.03;;
53718;SDS011;39616;48.872;9.390;2024-03-22T01:02:50;10.93;;;5.63;;
53718;SDS011;39616;48.872;9.390;2024-03-22T01:05:20;9.60;;;6.40;;
53718;SDS011;39616;48.872;9.390;2024-03-22T01:07:51;12.13;;;6.13;;
53718;SDS011;39616;48.872;9.390;2024-03-22T01:10:21;10.45;;;6.10;;
53718;SDS011;39616;48.872;9.390;2024-03-22T01:12:51;12.35;;;5.78;;
53718;SDS011;39616;48.872;9.390;2024-03-22T01:15:21;13.52;;;6.60;;
53718;SDS011;39616;48.872;9.390;2024-03-22T01:17:52;8.77;;;5.50;;
53718;SDS011;39616;48.872;9.390;2024-03-22T01:20:23;9.50;;;4.93;;
53718;SDS011;39616;48.872;9.390;2024-03-22T01:22:53;8.73;;;4.85;;
53718;SDS011;39616;48.872;9.390;2024-03-22T01:25:24;8.90;;;5.95;;
53718;SDS011;39616;48.872;9.390;2024-03-22T01:27:55;11.93;;;6.30;;
53718;SDS011;39616;48.872;9.390;2024-03-22T01:30:26;8.95;;;5.22;;
53718;SDS011;39616;48.872;9.390;2024-03-22T01:32:58;7.93;;;4.10;;
53718;SDS011;39616;48.872;9.390;2024-03-22T01:35:28;9.23;;;4.35;;
53718;SDS011;39616;48.872;9.390;2024-03-22T01:37:59;8.60;;;4.65;;
53718;SDS011;39616;48.872;9.390;2024-03-22T01:40:29;9.52;;;4.50;;
53718;SDS011;39616;48.872;9.390;2024-03-22T01:42:59;9.18;;;4.90;;
53718;SDS011;39616;48.872;9.390;2024-03-22T01:45:31;12.70;;;5.40;;
53718;SDS011;39616;48.872;9.390;2024-03-22T01:48:02;11.10;;;5.13;;
53718;SDS011;39616;48.872;9.390;2024-03-22T01:50:33;8.32;;;4.38;;
53718;SDS011;39616;48.872;9.390;2024-03-22T01:53:04;8.68;;;5.40;;
53718;SDS011;39616;48.872;9.390;2024-03-22T01:55:35;10.10;;;4.88;;
53718;SDS011;39616;48.872;9.390;2024-03-22T01:58:05;10.30;;;5.38;;
53718;SDS011;39616;48.872;9.390;2024-03-22T02:00:36;7.65;;;4.95;;
53718;SDS011;39616;48.872;9.390;2024-03-22T02:03:06;13.15;;;5.25;;
53718;SDS011;39616;48.872;9.390;2024-03-22T02:05:38;8.52;;;5.50;;
53718;SDS011;39616;48.872;9.390;2024-03-22T02:08:08;9.68;;;5.25;;
53718;SDS011;39616;48.872;9.390;2024-03-22T02:10:38;8.30;;;4.93;;
53718;SDS011;39616;48.872;9.390;2024-03-22T02:13:09;9.82;;;5.00;;
53718;SDS011;39616;48.872;9.390;2024-03-22T02:15:39;10.80;;;5.20;;
53718;SDS011;39616;48.872;9.390;2024-03-22T02:18:10;14.43;;;6.38;;
53718;SDS011;39616;48.872;9.390;2024-03-22T02:20:40;14.65;;;6.68;;
53718;SDS011;39616;48.872;9.390;2024-03-22T02:23:10;11.35;;;6.13;;
53718;SDS011;39616;48.872;9.390;2024-03-22T02:25:40;16.73;;;5.90;;
53718;SDS011;39616;48.872;9.390;2024-03-22T02:28:11;11.77;;;5.72;;
53718;SDS011;39616;48.872;9.390;2024-03-22T02:30:41;15.80;;;7.20;;
53718;SDS011;39616;48.872;9.390;2024-03-22T02:33:11;14.10;;;6.93;;
53718;SDS011;39616;48.872;9.390;2024-03-22T02:35:42;13.55;;;6.60;;
53718;SDS011;39616;48.872;9.390;2024-03-22T02:38:12;11.68;;;6.78;;
53718;SDS011;39616;48.872;9.390;2024-03-22T02:40:43;13.20;;;6.95;;
53718;SDS011;39616;48.872;9.390;2024-03-22T02:43:14;15.90;;;8.18;;
53718;SDS011;39616;48.872;9.390;2024-03-22T02:45:45;15.68;;;7.07;;
53718;SDS011;39616;48.872;9.390;2024-03-22T02:48:16;16.60;;;8.38;;
53718;SDS011;39616;48.872;9.390;2024-03-22T02:50:46;11.75;;;6.70;;
53718;SDS011;39616;48.872;9.390;2024-03-22T02:53:16;16.23;;;8.50;;
53718;SDS011;39616;48.872;9.390;2024-03-22T02:55:47;19.27;;;7.30;;
53718;SDS011;39616;48.872;9.390;2024-03-22T02:58:19;14.43;;;7.38;;
53718;SDS011;39616;48.872;9.390;2024-03-22T03:00:50;17.48;;;9.15;;
53718;SDS011;39616;48.872;9.390;2024-03-22T03:03:20;20.30;;;9.52;;
53718;SDS011;39616;48.872;9.390;2024-03-22T03:05:51;18.30;;;9.35;;
53718;SDS011;39616;48.872;9.390;2024-03-22T03:08:22;22.33;;;10.98;;
53718;SDS011;39616;48.872;9.390;2024-03-22T03:10:52;23.95;;;10.38;;
53718;SDS011;39616;48.872;9.390;2024-03-22T03:13:22;21.65;;;10.55;;
53718;SDS011;39616;48.872;9.390;2024-03-22T03:15:53;21.25;;;9.30;;
53718;SDS011;39616;48.872;9.390;2024-03-22T03:18:23;17.55;;;8.93;;
53718;SDS011;39616;48.872;9.390;2024-03-22T03:20:53;18.05;;;8.73;;
53718;SDS011;39616;48.872;9.390;2024-03-22T03:23:24;20.30;;;10.43;;
53718;SDS011;39616;48.872;9.390;2024-03-22T03:25:54;20.02;;;9.20;;
53718;SDS011;39616;48.872;9.390;2024-03-22T03:28:24;22.23;;;10.55;;
53718;SDS011;39616;48.872;9.390;2024-03-22T03:30:56;22.67;;;10.07;;
53718;SDS011;39616;48.872;9.390;2024-03-22T03:33:26;22.77;;;11.13;;
53718;SDS011;39616;48.872;9.390;2024-03-22T03:35:56;20.83;;;10.13;;
53718;SDS011;39616;48.872;9.390;2024-03-22T03:38:27;22.75;;;9.88;;
53718;SDS011;39616;48.872;9.390;2024-03-22T03:40:57;21.00;;;9.90;;
53718;SDS011;39616;48.872;9.390;2024-03-22T03:43:27;17.40;;;9.45;;
53718;SDS011;39616;48.872;9.390;2024-03-22T03:45:57;20.75;;;8.93;;
53718;SDS011;39616;48.872;9.390;2024-03-22T03:48:28;18.70;;;8.80;;
53718;SDS011;39616;48.872;9.390;2024-03-22T03:50:58;19.40;;;8.48;;
53718;SDS011;39616;48.872;9.390;2024-03-22T03:53:32;18.95;;;9.32;;
53718;SDS011;39616;48.872;9.390;2024-03-22T03:56:03;18.88;;;9.65;;
53718;SDS011;39616;48.872;9.390;2024-03-22T03:58:33;18.85;;;9.50;;
53718;SDS011;39616;48.872;9.390;2024-03-22T04:01:07;20.00;;;9.02;;
53718;SDS011;39616;48.872;9.390;2024-03-22T04:03:38;21.33;;;9.30;;
53718;SDS011;39616;48.872;9.390;2024-03-22T04:06:08;15.70;;;8.70;;
53718;SDS011;39616;48.872;9.390;2024-03-22T04:08:39;19.27;;;11.02;;
53718;SDS011;39616;48.872;9.390;2024-03-22T04:11:09;19.05;;;9.13;;
53718;SDS011;39616;48.872;9.390;2024-03-22T04:13:40;19.55;;;10.38;;
53718;SDS011;39616;48.872;9.390;2024-03-22T04:16:10;16.80;;;9.27;;
53718;SDS011;39616;48.872;9.390;2024-03-22T04:18:40;19.63;;;8.65;;
53718;SDS011;39616;48.872;9.390;2024-03-22T04:21:11;16.63;;;8.68;;
53718;SDS011;39616;48.872;9.390;2024-03-22T04:23:41;18.15;;;9.02;;
53718;SDS011;39616;48.872;9.390;2024-03-22T04:26:11;20.35;;;9.27;;
53718;SDS011;39616;48.872;9.390;2024-03-22T04:28:42;18.23;;;9.30;;
53718;SDS011;39616;48.872;9.390;2024-03-22T04:31:12;19.90;;;8.85;;
53718;SDS011;39616;48.872;9.390;2024-03-22T04:33:42;13.48;;;8.20;;
53718;SDS011;39616;48.872;9.390;2024-03-22T04:36:13;15.68;;;8.20;;
53718;SDS011;39616;48.872;9.390;2024-03-22T04:38:43;17.38;;;8.85;;
53718;SDS011;39616;48.872;9.390;2024-03-22T04:41:13;20.17;;;8.68;;
53718;SDS011;39616;48.872;9.390;2024-03-22T04:43:44;16.55;;;8.65;;
53718;SDS011;39616;48.872;9.390;2024-03-22T04:46:14;27.60;;;9.35;;
53718;SDS011;39616;48.872;9.390;2024-03-22T04:48:44;18.40;;;8.63;;
53718;SDS011;39616;48.872;9.390;2024-03-22T04:51:15;16.00;;;8.70;;
53718;SDS011;39616;48.872;9.390;2024-03-22T04:53:45;13.95;;;7.95;;
53718;SDS011;39616;48.872;9.390;2024-03-22T04:56:15;16.25;;;9.07;;
53718;SDS011;39616;48.872;9.390;2024-03-22T04:58:45;16.55;;;8.73;;
53718;SDS011;39616;48.872;9.390;2024-03-22T05:01:16;21.10;;;9.20;;
53718;SDS011;39616;48.872;9.390;2024-03-22T05:03:46;19.38;;;9.10;;
53718;SDS011;39616;48.872;9.390;2024-03-22T05:06:18;16.92;;;8.55;;
53718;SDS011;39616;48.872;9.390;2024-03-22T05:08:48;16.38;;;8.55;;
53718;SDS011;39616;48.872;9.390;2024-03-22T05:11:18;20.92;;;10.13;;
53718;SDS011;39616;48.872;9.390;2024-03-22T05:13:49;16.55;;;9.73;;
53718;SDS011;39616;48.872;9.390;2024-03-22T05:16:19;21.13;;;9.10;;
53718;SDS011;39616;48.872;9.390;2024-03-22T05:18:49;19.48;;;9.27;;
53718;SDS011;39616;48.872;9.390;2024-03-22T05:21:20;17.33;;;9.45;;
53718;SDS011;39616;48.872;9.390;2024-03-22T05:23:50;16.38;;;8.10;;
53718;SDS011;39616;48.872;9.390;2024-03-22T05:26:20;20.75;;;9.35;;
53718;SDS011;39616;48.872;9.390;2024-03-22T05:28:51;17.40;;;8.52;;
53718;SDS011;39616;48.872;9.390;2024-03-22T05:31:22;16.77;;;9.05;;
53718;SDS011;39616;48.872;9.390;2024-03-22T05:33:52;20.88;;;9.20;;
53718;SDS011;39616;48.872;9.390;2024-03-22T05:36:23;16.63;;;9.18;;
53718;SDS011;39616;48.872;9.390;2024-03-22T05:38:53;20.38;;;9.18;;
53718;SDS011;39616;48.872;9.390;2024-03-22T05:41:23;22.00;;;10.63;;
53718;SDS011;39616;48.872;9.390;2024-03-22T05:43:53;18.88;;;10.95;;
53718;SDS011;39616;48.872;9.390;2024-03-22T05:46:24;19.75;;;10.63;;
53718;SDS011;39616;48.872;9.390;2024-03-22T05:48:54;20.05;;;12.73;;
53718;SDS011;39616;48.872;9.390;2024-03-22T05:51:25;20.95;;;12.85;;
53718;SDS011;39616;48.872;9.390;2024-03-22T05:53:56;20.98;;;9.73;;
53718;SDS011;39616;48.872;9.390;2024-03-22T05:56:27;19.02;;;9.95;;
53718;SDS011;39616;48.872;9.390;2024-03-22T05:58:57;21.13;;;10.15;;
53718;SDS011;39616;48.872;9.390;2024-03-22T06:01:27;17.52;;;9.10;;
53718;SDS011;39616;48.872;9.390;2024-03-22T06:03:58;18.58;;;9.82;;
53718;SDS011;39616;48.872;9.390;2024-03-22T06:06:28;14.20;;;8.38;;
53718;SDS011;39616;48.872;9.390;2024-03-22T06:08:59;16.75;;;8.35;;
53718;SDS011;39616;48.872;9.390;2024-03-22T06:11:32;16.08;;;9.00;;
53718;SDS011;39616;48.872;9.390;2024-03-22T06:14:03;17.98;;;9.07;;
53718;SDS011;39616;48.872;9.390;2024-03-22T06:16:34;17.75;;;9.95;;
53718;SDS011;39616;48.872;9.390;2024-03-22T06:19:04;18.23;;;9.75;;
53718;SDS011;39616;48.872;9.390;2024-03-22T06:21:34;16.75;;;9.70;;
53718;SDS011;39616;48.872;9.390;2024-03-22T06:24:05;16.30;;;9.68;;
53718;SDS011;39616;48.872;9.390;2024-03-22T06:26:35;18.13;;;10.70;;
53718;SDS011;39616;48.872;9.390;2024-03-22T06:29:05;18.83;;;10.93;;
53718;SDS011;39616;48.872;9.390;2024-03-22T06:31:36;23.65;;;9.55;;
53718;SDS011;39616;48.872;9.390;2024-03-22T06:34:06;20.45;;;10.35;;
53718;SDS011;39616;48.872;9.390;2024-03-22T06:36:36;19.98;;;9.63;;
53718;SDS011;39616;48.872;9.390;2024-03-22T06:39:06;27.40;;;14.95;;
53718;SDS011;39616;48.872;9.390;2024-03-22T06:41:38;20.92;;;10.38;;
53718;SDS011;39616;48.872;9.390;2024-03-22T06:44:08;15.02;;;10.07;;
53718;SDS011;39616;48.872;9.390;2024-03-22T06:46:42;18.83;;;9.77;;
53718;SDS011;39616;48.872;9.390;2024-03-22T06:49:12;17.65;;;9.90;;
53718;SDS011;39616;48.872;9.390;2024-03-22T06:51:42;20.50;;;10.45;;
53718;SDS011;39616;48.872;9.390;2024-03-22T06:54:12;17.98;;;10.13;;
53718;SDS011;39616;48.872;9.390;2024-03-22T06:56:43;22.70;;;10.07;;
53718;SDS011;39616;48.872;9.390;2024-03-22T06:59:13;19.05;;;8.85;;
53718;SDS011;39616;48.872;9.390;2024-03-22T07:01:43;18.92;;;9.85;;
53718;SDS011;39616;48.872;9.390;2024-03-22T07:04:14;20.17;;;10.07;;
53718;SDS011;39616;48.872;9.390;2024-03-22T07:06:44;19.92;;;10.48;;
53718;SDS011;39616;48.872;9.390;2024-03-22T07:09:14;20.15;;;10.48;;
53718;SDS011;39616;48.872;9.390;2024-03-22T07:11:45;19.50;;;11.23;;
53718;SDS011;39616;48.872;9.390;2024-03-22T07:14:15;18.67;;;10.68;;
53718;SDS011;39616;48.872;9.390;2024-03-22T07:16:46;20.13;;;10.70;;
53718;SDS011;39616;48.872;9.390;2024-03-22T07:19:16;18.00;;;10.45;;
53718;SDS011;39616;48.872;9.390;2024-03-22T07:21:47;17.02;;;10.43;;
53718;SDS011;39616;48.872;9.390;2024-03-22T07:24:17;17.73;;;10.13;;
53718;SDS011;39616;48.872;9.390;2024-03-22T07:26:48;16.60;;;9.57;;
53718;SDS011;39616;48.872;9.390;2024-03-22T07:29:18;18.35;;;9.23;;
53718;SDS011;39616;48.872;9.390;2024-03-22T07:31:48;19.48;;;9.65;;
53718;SDS011;39616;48.872;9.390;2024-03-22T07:34:18;13.60;;;9.00;;
53718;SDS011;39616;48.872;9.390;2024-03-22T07:36:49;19.92;;;9.05;;
53718;SDS011;39616;48.872;9.390;2024-03-22T07:39:19;15.30;;;9.40;;
53718;SDS011;39616;48.872;9.390;2024-03-22T07:41:50;13.90;;;8.25;;
53718;SDS011;39616;48.872;9.390;2024-03-22T07:44:20;15.82;;;8.77;;
53718;SDS011;39616;48.872;9.390;2024-03-22T07:46:51;17.38;;;9.38;;
53718;SDS011;39616;48.872;9.390;2024-03-22T07:49:21;20.08;;;9.13;;
53718;SDS011;39616;48.872;9.390;2024-03-22T07:51:51;17.63;;;7.55;;
53718;SDS011;39616;48.872;9.390;2024-03-22T07:54:23;13.90;;;7.75;;
53718;SDS011;39616;48.872;9.390;2024-03-22T07:56:53;10.85;;;7.22;;
53718;SDS011;39616;48.872;9.390;2024-03-22T07:59:23;13.48;;;6.47;;
53718;SDS011;39616;48.872;9.390;2024-03-22T08:01:53;9.45;;;5.82;;
53718;SDS011;39616;48.872;9.390;2024-03-22T08:04:24;9.57;;;6.07;;
53718;SDS011;39616;48.872;9.390;2024-03-22T08:06:54;8.43;;;6.10;;
53718;SDS011;39616;48.872;9.390;2024-03-22T08:09:24;10.50;;;6.43;;
53718;SDS011;39616;48.872;9.390;2024-03-22T08:11:55;11.38;;;6.43;;
53718;SDS011;39616;48.872;9.390;2024-03-22T08:14:25;13.02;;;5.72;;
53718;SDS011;39616;48.872;9.390;2024-03-22T08:16:55;13.70;;;7.50;;
53718;SDS011;39616;48.872;9.390;2024-03-22T08:19:26;14.10;;;8.38;;
53718;SDS011;39616;48.872;9.390;2024-03-22T08:21:56;13.32;;;8.45;;
53718;SDS011;39616;48.872;9.390;2024-03-22T08:24:26;13.13;;;7.53;;
53718;SDS011;39616;48.872;9.390;2024-03-22T08:26:56;13.30;;;7.93;;
53718;SDS011;39616;48.872;9.390;2024-03-22T08:29:27;11.77;;;6.93;;
53718;SDS011;39616;48.872;9.390;2024-03-22T08:31:57;15.48;;;7.85;;
53718;SDS011;39616;48.872;9.390;2024-03-22T08:34:27;12.68;;;7.45;;
53718;SDS011;39616;48.872;9.390;2024-03-22T08:36:58;12.07;;;7.07;;
53718;SDS011;39616;48.872;9.390;2024-03-22T08:39:29;12.57;;;7.40;;
53718;SDS011;39616;48.872;9.390;2024-03-22T08:42:00;14.13;;;7.65;;
53718;SDS011;39616;48.872;9.390;2024-03-22T08:44:30;14.05;;;6.68;;
53718;SDS011;39616;48.872;9.390;2024-03-22T08:47:00;16.27;;;6.35;;
53718;SDS011;39616;48.872;9.390;2024-03-22T08:49:31;12.70;;;6.60;;
53718;SDS011;39616;48.872;9.390;2024-03-22T08:52:01;11.25;;;6.38;;
53718;SDS011;39616;48.872;9.390;2024-03-22T08:54:32;10.13;;;5.55;;
53718;SDS011;39616;48.872;9.390;2024-03-22T08:57:02;12.70;;;6.95;;
53718;SDS011;39616;48.872;9.390;2024-03-22T08:59:32;8.82;;;5.97;;
53718;SDS011;39616;48.872;9.390;2024-03-22T09:02:03;11.93;;;6.30;;
53718;SDS011;39616;48.872;9.390;2024-03-22T09:04:33;9.02;;;6.10;;
53718;SDS011;39616;48.872;9.390;2024-03-22T09:07:03;9.27;;;6.03;;
53718;SDS011;39616;48.872;9.390;2024-03-22T09:09:34;9.20;;;5.82;;
53718;SDS011;39616;48.872;9.390;2024-03-22T09:12:04;13.25;;;7.20;;
53718;SDS011;39616;48.872;9.390;2024-03-22T09:14:36;8.40;;;6.47;;
53718;SDS011;39616;48.872;9.390;2024-03-22T09:17:06;15.60;;;7.35;;
53718;SDS011;39616;48.872;9.390;2024-03-22T09:19:37;9.60;;;6.35;;
53718;SDS011;39616;48.872;9.390;2024-03-22T09:22:07;10.80;;;5.82;;
53718;SDS011;39616;48.872;9.390;2024-03-22T09:24:37;12.98;;;6.38;;
53718;SDS011;39616;48.872;9.390;2024-03-22T09:27:08;12.35;;;7.00;;
53718;SDS011;39616;48.872;9.390;2024-03-22T09:29:41;10.80;;;6.95;;
53718;SDS011;39616;48.872;9.390;2024-03-22T09:32:13;12.32;;;8.15;;
53718;SDS011;39616;48.872;9.390;2024-03-22T09:34:43;11.55;;;7.28;;
53718;SDS011;39616;48.872;9.390;2024-03-22T09:37:14;13.10;;;7.32;;
53718;SDS011;39616;48.872;9.390;2024-03-22T09:39:44;13.68;;;6.80;;
53718;SDS011;39616;48.872;9.390;2024-03-22T09:42:18;12.25;;;7.03;;
53718;SDS011;39616;48.872;9.390;2024-03-22T09:44:48;11.68;;;6.35;;
53718;SDS011;39616;48.872;9.390;2024-03-22T09:47:20;11.90;;;6.68;;
53718;SDS011;39616;48.872;9.390;2024-03-22T09:49:51;10.48;;;6.38;;
53718;SDS011;39616;48.872;9.390;2024-03-22T09:52:22;18.63;;;7.65;;
53718;SDS011;39616;48.872;9.390;2024-03-22T09:54:53;10.75;;;6.05;;
53718;SDS011;39616;48.872;9.390;2024-03-22T09:57:23;9.40;;;4.82;;
53718;SDS011;39616;48.872;9.390;2024-03-22T09:59:54;10.48;;;5.78;;
53718;SDS011;39616;48.872;9.390;2024-03-22T10:02:25;8.23;;;4.85;;
53718;SDS011;39616;48.872;9.390;2024-03-22T10:04:56;7.18;;;5.45;;
53718;SDS011;39616;48.872;9.390;2024-03-22T10:07:26;14.27;;;6.53;;
53718;SDS011;39616;48.872;9.390;2024-03-22T10:09:57;9.45;;;5.32;;
53718;SDS011;39616;48.872;9.390;2024-03-22T10:12:30;12.30;;;5.25;;
53718;SDS011;39616;48.872;9.390;2024-03-22T10:15:01;8.88;;;5.07;;
53718;SDS011;39616;48.872;9.390;2024-03-22T10:17:31;13.13;;;6.35;;
53718;SDS011;39616;48.872;9.390;2024-03-22T10:20:01;14.85;;;5.60;;
53718;SDS011;39616;48.872;9.390;2024-03-22T10:22:32;9.68;;;5.75;;
53718;SDS011;39616;48.872;9.390;2024-03-22T10:25:04;10.82;;;5.88;;
53718;SDS011;39616;48.872;9.390;2024-03-22T10:27:40;10.90;;;4.15;;
53718;SDS011;39616;48.872;9.390;2024-03-22T10:30:15;8.32;;;3.90;;
53718;SDS011;39616;48.872;9.390;2024-03-22T10:32:49;6.20;;;3.40;;
53718;SDS011;39616;48.872;9.390;2024-03-22T10:35:20;8.18;;;3.63;;
53718;SDS011;39616;48.872;9.390;2024-03-22T10:37:51;7.65;;;3.50;;
53718;SDS011;39616;48.872;9.390;2024-03-22T10:40:23;6.15;;;3.42;;
53718;SDS011;39616;48.872;9.390;2024-03-22T10:42:54;8.98;;;3.42;;
53718;SDS011;39616;48.872;9.390;2024-03-22T10:45:24;6.80;;;3.42;;
53718;SDS011;39616;48.872;9.390;2024-03-22T10:47:57;7.55;;;4.05;;
53718;SDS011;39616;48.872;9.390;2024-03-22T10:50:28;5.65;;;3.55;;
53718;SDS011;39616;48.872;9.390;2024-03-22T10:53:01;6.50;;;3.88;;
53718;SDS011;39616;48.872;9.390;2024-03-22T10:55:37;7.70;;;3.85;;
53718;SDS011;39616;48.872;9.390;2024-03-22T10:58:16;15.30;;;4.38;;
53718;SDS011;39616;48.872;9.390;2024-03-22T11:00:47;5.80;;;3.78;;
53718;SDS011;39616;48.872;9.390;2024-03-22T11:03:24;6.68;;;3.95;;
53718;SDS011;39616;48.872;9.390;2024-03-22T11:05:56;7.17;;;3.73;;
53718;SDS011;39616;48.872;9.390;2024-03-22T11:08:27;6.60;;;3.78;;
53718;SDS011;39616;48.872;9.390;2024-03-22T11:11:08;7.47;;;4.03;;
53718;SDS011;39616;48.872;9.390;2024-03-22T11:13:40;7.15;;;3.40;;
53718;SDS011;39616;48.872;9.390;2024-03-22T11:16:10;5.45;;;3.45;;
53718;SDS011;39616;48.872;9.390;2024-03-22T11:18:41;11.30;;;3.80;;
53718;SDS011;39616;48.872;9.390;2024-03-22T11:21:12;8.32;;;3.05;;
53718;SDS011;39616;48.872;9.390;2024-03-22T11:23:46;8.65;;;3.92;;
53718;SDS011;39616;48.872;9.390;2024-03-22T11:26:16;9.07;;;3.63;;
53718;SDS011;39616;48.872;9.390;2024-03-22T11:28:47;6.80;;;3.33;;
53718;SDS011;39616;48.872;9.390;2024-03-22T11:31:20;7.60;;;3.70;;
53718;SDS011;39616;48.872;9.390;2024-03-22T11:33:55;7.32;;;3.45;;
53718;SDS011;39616;48.872;9.390;2024-03-22T11:36:25;9.18;;;4.85;;
53718;SDS011;39616;48.872;9.390;2024-03-22T11:38:56;7.75;;;3.90;;
53718;SDS011;39616;48.872;9.390;2024-03-22T11:41:27;6.97;;;3.72;;
53718;SDS011;39616;48.872;9.390;2024-03-22T11:43:59;6.45;;;3.88;;
53718;SDS011;39616;48.872;9.390;2024-03-22T11:46:30;6.25;;;3.22;;
53718;SDS011;39616;48.872;9.390;2024-03-22T11:49:01;6.97;;;3.83;;
53718;SDS011;39616;48.872;9.390;2024-03-22T11:51:32;10.10;;;4.13;;
53718;SDS011;39616;48.872;9.390;2024-03-22T11:54:05;11.68;;;4.03;;
53718;SDS011;39616;48.872;9.390;2024-03-22T11:56:39;8.98;;;3.88;;
53718;SDS011;39616;48.872;9.390;2024-03-22T11:59:10;12.57;;;4.47;;
53718;SDS011;39616;48.872;9.390;2024-03-22T12:01:40;7.93;;;4.28;;
53718;SDS011;39616;48.872;9.390;2024-03-22T12:04:11;6.70;;;4.07;;
53718;SDS011;39616;48.872;9.390;2024-03-22T12:06:45;7.22;;;4.15;;
53718;SDS011;39616;48.872;9.390;2024-03-22T12:09:15;8.18;;;4.75;;
53718;SDS011;39616;48.872;9.390;2024-03-22T12:11:45;7.78;;;4.22;;
53718;SDS011;39616;48.872;9.390;2024-03-22T12:14:15;6.72;;;3.35;;
53718;SDS011;39616;48.872;9.390;2024-03-22T12:16:46;11.25;;;4.32;;
53718;SDS011;39616;48.872;9.390;2024-03-22T12:19:17;5.20;;;3.65;;
53718;SDS011;39616;48.872;9.390;2024-03-22T12:21:47;7.05;;;3.63;;
53718;SDS011;39616;48.872;9.390;2024-03-22T12:24:17;5.57;;;4.03;;
53718;SDS011;39616;48.872;9.390;2024-03-22T12:26:48;7.20;;;3.60;;
53718;SDS011;39616;48.872;9.390;2024-03-22T12:29:18;7.75;;;3.67;;
53718;SDS011;39616;48.872;9.390;2024-03-22T12:31:48;6.47;;;3.75;;
53718;SDS011;39616;48.872;9.390;2024-03-22T12:34:20;5.88;;;3.40;;
53718;SDS011;39616;48.872;9.390;2024-03-22T12:36:50;9.73;;;3.72;;
53718;SDS011;39616;48.872;9.390;2024-03-22T12:39:21;7.25;;;3.70;;
53718;SDS011;39616;48.872;9.390;2024-03-22T12:41:52;4.28;;;2.83;;
53718;SDS011;39616;48.872;9.390;2024-03-22T12:44:23;5.78;;;3.25;;
53718;SDS011;39616;48.872;9.390;2024-03-22T12:46:54;5.50;;;3.45;;
53718;SDS011;39616;48.872;9.390;2024-03-22T12:49:24;9.52;;;3.42;;
53718;SDS011;39616;48.872;9.390;2024-03-22T12:51:55;10.77;;;3.42;;
53718;SDS011;39616;48.872;9.390;2024-03-22T12:54:26;8.48;;;3.47;;
53718;SDS011;39616;48.872;9.390;2024-03-22T12:56:57;7.53;;;3.20;;
53718;SDS011;39616;48.872;9.390;2024-03-22T12:59:27;7.50;;;3.38;;
53718;SDS011;39616;48.872;9.390;2024-03-22T13:01:57;7.43;;;2.75;;
53718;SDS011;39616;48.872;9.390;2024-03-22T13:04:28;7.38;;;2.88;;
53718;SDS011;39616;48.872;9.390;2024-03-22T13:06:58;4.15;;;2.75;;
53718;SDS011;39616;48.872;9.390;2024-03-22T13:09:28;4.90;;;3.03;;
53718;SDS011;39616;48.872;9.390;2024-03-22T13:11:59;8.63;;;2.65;;
53718;SDS011;39616;48.872;9.390;2024-03-22T13:14:29;7.38;;;2.30;;
53718;SDS011;39616;48.872;9.390;2024-03-22T13:17:00;9.13;;;2.60;;
53718;SDS011;39616;48.872;9.390;2024-03-22T13:19:30;3.45;;;2.60;;
53718;SDS011;39616;48.872;9.390;2024-03-22T13:22:00;5.22;;;2.53;;
53718;SDS011;39616;48.872;9.390;2024-03-22T13:24:31;6.70;;;2.08;;
53718;SDS011;39616;48.872;9.390;2024-03-22T13:27:01;4.25;;;2.35;;
53718;SDS011;39616;48.872;9.390;2024-03-22T13:29:32;5.90;;;2.25;;
53718;SDS011;39616;48.872;9.390;2024-03-22T13:32:03;4.90;;;2.10;;
53718;SDS011;39616;48.872;9.390;2024-03-22T13:34:37;6.07;;;3.10;;
53718;SDS011;39616;48.872;9.390;2024-03-22T13:37:08;3.85;;;2.08;;
53718;SDS011;39616;48.872;9.390;2024-03-22T13:39:39;7.05;;;3.35;;
53718;SDS011;39616;48.872;9.390;2024-03-22T13:42:09;9.52;;;3.50;;
53718;SDS011;39616;48.872;9.390;2024-03-22T13:44:39;11.70;;;4.15;;
53718;SDS011;39616;48.872;9.390;2024-03-22T13:47:09;8.77;;;3.28;;
53718;SDS011;39616;48.872;9.390;2024-03-22T13:49:40;9.18;;;3.17;;
53718;SDS011;39616;48.872;9.390;2024-03-22T13:52:13;5.10;;;2.42;;
53718;SDS011;39616;48.872;9.390;2024-03-22T13:54:44;3.17;;;2.35;;
53718;SDS011;39616;48.872;9.390;2024-03-22T13:57:14;7.13;;;2.50;;
53718;SDS011;39616;48.872;9.390;2024-03-22T13:59:45;4.43;;;2.95;;
53718;SDS011;39616;48.872;9.390;2024-03-22T14:02:16;5.53;;;2.45;;
53718;SDS011;39616;48.872;9.390;2024-03-22T14:04:46;4.95;;;2.35;;
53718;SDS011;39616;48.872;9.390;2024-03-22T14:07:16;3.05;;;2.25;;
53718;SDS011;39616;48.872;9.390;2024-03-22T14:09:47;5.15;;;2.55;;
53718;SDS011;39616;48.872;9.390;2024-03-22T14:12:17;5.65;;;2.55;;
53718;SDS011;39616;48.872;9.390;2024-03-22T14:14:47;7.53;;;2.97;;
53718;SDS011;39616;48.872;9.390;2024-03-22T14:17:18;3.60;;;2.35;;
53718;SDS011;39616;48.872;9.390;2024-03-22T14:19:48;4.07;;;2.65;;
53718;SDS011;39616;48.872;9.390;2024-03-22T14:22:19;5.50;;;3.08;;
53718;SDS011;39616;48.872;9.390;2024-03-22T14:24:49;5.65;;;3.15;;
53718;SDS011;39616;48.872;9.390;2024-03-22T14:27:19;7.80;;;3.60;;
53718;SDS011;39616;48.872;9.390;2024-03-22T14:29:50;5.57;;;3.42;;
53718;SDS011;39616;48.872;9.390;2024-03-22T14:32:21;8.35;;;3.70;;
53718;SDS011;39616;48.872;9.390;2024-03-22T14:34:52;6.18;;;3.60;;
53718;SDS011;39616;48.872;9.390;2024-03-22T14:37:23;10.10;;;2.88;;
53718;SDS011;39616;48.872;9.390;2024-03-22T14:39:53;6.47;;;3.15;;
53718;SDS011;39616;48.872;9.390;2024-03-22T14:42:24;8.43;;;3.17;;
53718;SDS011;39616;48.872;9.390;2024-03-22T14:44:54;6.00;;;3.80;;
53718;SDS011;39616;48.872;9.390;2024-03-22T14:47:26;5.78;;;3.03;;
53718;SDS011;39616;48.872;9.390;2024-03-22T14:49:56;3.75;;;2.42;;
53718;SDS011;39616;48.872;9.390;2024-03-22T14:52:26;7.00;;;2.97;;
53718;SDS011;39616;48.872;9.390;2024-03-22T14:54:57;5.13;;;2.80;;
53718;SDS011;39616;48.872;9.390;2024-03-22T14:57:27;6.97;;;2.95;;